International Virtual Aviation Organisation

Russian Federation and Kazakhstan MCD

 

Карточка аэропорта URKA

Внимание!
Информация на этой странице в стадии наполнения.
Если вы не увидели какой-то информации, или заметили неточность - пожалуйста сообщите нам!
Спасибо!
Команда RU-STAFF
Название аэропортаВитязево
Название аэропорта (англ.)Vityazevo
Превышение176 ft. (53.6 m.)
Координаты45°0.13200000000012', 37°20.832'
Высота перехода1100m
Эшелон переходаFL050
Коды ответчика2400-2407
Зона ОрВДРостов-на-Дону РПИ (URRV)
Данные METARURKA 212100Z 09002MPS 5000 BR SCT/// 13/12 Q1014 R22/010070 TEMPO 1000 BR SCT010 BKN020CB RMK QFE755/1007
Проноз погоды (TAF)URKA 211957Z 2121/2221 10003G08MPS 9999 SCT020CB TEMPO 2121/2203 3100 BR SCT011 BKN020CB FM220300 23006G12MPS 9999 SCT030CB TEMPO 2203/2212 VRB08G15MPS 3100 -TSRA BKN011 BKN020CB
NOTAMshow/hide NOTAM
AWOS   TABLE

Информация о ВПП

ВПП Длина ВПП (м.) Покрытие Курс ВПП Частота ILS
042500Цементобетон36109.1
222500Цементобетон216 

Диспетчерские позиции

Позывной Наименование органа УВД Частота
URKA_R_APPАнапа-Круг118.7
URKA_TWRАнапа-Старт119.8
URKA_GNDАнапа-Руление119.0



Спутниковое изображение